createdAt,value
2022-07-29T00:00:46.973Z,67.47
2022-07-29T00:01:47.023Z,67.38
2022-07-29T00:02:47.165Z,67.27
2022-07-29T00:03:47.249Z,67.18
2022-07-29T00:04:47.262Z,67.18
2022-07-29T00:05:47.306Z,66.97
2022-07-29T00:06:47.383Z,66.97
2022-07-29T00:07:47.472Z,66.77
2022-07-29T00:08:47.550Z,66.67
2022-07-29T00:09:51.610Z,66.67
2022-07-29T00:10:47.707Z,66.27
2022-07-29T00:11:47.779Z,66.47
2022-07-29T00:12:47.858Z,66.47
2022-07-29T00:13:51.024Z,66.57
2022-07-29T00:14:48.024Z,66.67
2022-07-29T00:15:48.072Z,66.97
2022-07-29T00:16:48.296Z,66.87
2022-07-29T00:17:48.225Z,67.07
2022-07-29T00:18:48.309Z,67.18
2022-07-29T00:19:48.377Z,67.38
2022-07-29T00:20:48.428Z,67.58
2022-07-29T00:21:48.481Z,67.58
2022-07-29T00:22:48.573Z,67.88
2022-07-29T00:23:48.616Z,68.08
2022-07-29T00:24:48.709Z,68.18
2022-07-29T00:25:48.750Z,68.08
2022-07-29T00:26:48.830Z,68.38
2022-07-29T00:27:48.879Z,68.28
2022-07-29T00:28:48.980Z,68.59
2022-07-29T00:29:49.079Z,68.38
2022-07-29T00:30:49.168Z,68.48
2022-07-29T00:31:49.308Z,68.59
2022-07-29T00:32:49.316Z,68.88
2022-07-29T00:33:49.393Z,69.42
2022-07-29T00:34:49.539Z,69.12
2022-07-29T00:35:49.572Z,69.29
2022-07-29T00:36:49.681Z,69.38
2022-07-29T00:37:49.755Z,69.38
2022-07-29T00:38:49.857Z,69.59
2022-07-29T00:39:49.952Z,69.49
2022-07-29T00:40:50.026Z,69.29
2022-07-29T00:41:50.097Z,69.18
2022-07-29T00:42:50.174Z,69.29
2022-07-29T00:43:50.252Z,69.18
2022-07-29T00:44:50.345Z,69.09
2022-07-29T00:45:50.485Z,68.88
2022-07-29T00:46:50.557Z,68.71
2022-07-29T00:47:50.559Z,68.59
2022-07-29T00:48:50.717Z,68.11
2022-07-29T00:49:50.733Z,68.41
2022-07-29T00:50:50.805Z,68.41
2022-07-29T00:51:50.880Z,68.31
2022-07-29T00:52:50.981Z,68.38
2022-07-29T00:53:51.055Z,68.41
2022-07-29T00:54:51.172Z,68.71
2022-07-29T00:55:51.208Z,68.71
2022-07-29T00:56:51.308Z,68.82
2022-07-29T00:57:51.387Z,68.82
2022-07-29T00:58:51.485Z,69.22
2022-07-29T00:59:51.576Z,69.32
2022-07-29T01:00:51.764Z,69.42
2022-07-29T01:01:51.960Z,69.22
2022-07-29T01:02:51.789Z,69.32
2022-07-29T01:03:51.855Z,69.22
2022-07-29T01:04:51.944Z,69.12
2022-07-29T01:05:52.162Z,69.22
2022-07-29T01:06:52.121Z,69.32
2022-07-29T01:07:52.205Z,69.72
2022-07-29T01:08:52.305Z,70.23
2022-07-29T01:09:52.395Z,70.23
2022-07-29T01:10:52.465Z,70.23
2022-07-29T01:11:52.527Z,70.23
2022-07-29T01:12:52.625Z,70.12
2022-07-29T01:13:52.697Z,70.43
2022-07-29T01:14:52.820Z,70.43
2022-07-29T01:15:52.903Z,70.23
2022-07-29T01:16:52.964Z,69.85
2022-07-29T01:17:53.824Z,70.06
2022-07-29T01:18:53.120Z,70.16
2022-07-29T01:19:53.208Z,70.16
2022-07-29T01:20:53.290Z,70.16
2022-07-29T01:21:53.356Z,70.26
2022-07-29T01:22:53.460Z,70.06
2022-07-29T01:23:53.538Z,70.36
2022-07-29T01:24:53.659Z,70.56
2022-07-29T01:25:55.805Z,70.56
2022-07-29T01:26:53.795Z,70.46
2022-07-29T01:27:53.863Z,70.36
2022-07-29T01:28:53.954Z,70.36
2022-07-29T01:29:54.023Z,70.16
2022-07-29T01:30:54.110Z,70.36
2022-07-29T01:32:00.711Z,70.76
2022-07-29T01:32:54.306Z,70.56
2022-07-29T01:33:54.362Z,70.39
2022-07-29T01:34:54.478Z,70.59
2022-07-29T01:35:54.513Z,70.90
2022-07-29T01:36:54.617Z,70.90
2022-07-29T01:37:54.698Z,71.10
2022-07-29T01:38:54.766Z,71.10
2022-07-29T01:39:54.848Z,71.10
2022-07-29T01:40:54.915Z,71.20
2022-07-29T01:41:54.988Z,71.00
2022-07-29T01:42:55.092Z,71.10
2022-07-29T01:43:55.148Z,71.10
2022-07-29T01:44:55.272Z,71.00
2022-07-29T01:45:55.324Z,71.00
2022-07-29T01:46:55.490Z,71.10
2022-07-29T01:47:55.513Z,71.20
2022-07-29T01:48:55.623Z,71.30
2022-07-29T01:49:55.672Z,71.30
2022-07-29T01:50:55.746Z,71.30
2022-07-29T01:51:55.848Z,71.50
2022-07-29T01:52:55.921Z,71.40
2022-07-29T01:53:56.011Z,71.53
2022-07-29T01:54:56.107Z,71.73
2022-07-29T01:55:56.177Z,72.04
2022-07-29T01:56:56.244Z,71.94
2022-07-29T01:57:56.348Z,72.04
2022-07-29T01:58:56.406Z,72.04
2022-07-29T01:59:56.524Z,72.04
2022-07-29T02:00:56.565Z,72.14
2022-07-29T02:01:56.710Z,72.24
2022-07-29T02:02:56.722Z,72.14
2022-07-29T02:03:56.828Z,72.47
2022-07-29T02:04:56.946Z,72.47
2022-07-29T02:05:56.998Z,72.58
2022-07-29T02:06:57.066Z,72.58
2022-07-29T02:07:57.163Z,72.67
2022-07-29T02:08:57.239Z,72.78
2022-07-29T02:09:57.342Z,72.88
2022-07-29T02:10:57.400Z,72.47
2022-07-29T02:11:57.506Z,72.61
2022-07-29T02:12:57.584Z,72.61
2022-07-29T02:13:57.692Z,73.01
2022-07-29T02:14:59.733Z,73.11
2022-07-29T02:15:57.912Z,73.01
2022-07-29T02:16:57.941Z,73.11
2022-07-29T02:17:58.051Z,73.22
2022-07-29T02:18:58.132Z,73.22
2022-07-29T02:19:58.202Z,73.42
2022-07-29T02:20:58.303Z,73.62
2022-07-29T02:21:58.371Z,73.52
2022-07-29T02:22:58.453Z,73.62
2022-07-29T02:23:58.556Z,73.62
2022-07-29T02:24:58.618Z,73.52
2022-07-29T02:25:58.876Z,73.52
2022-07-29T02:26:58.788Z,73.62
2022-07-29T02:27:58.893Z,73.62
2022-07-29T02:28:58.972Z,73.62
2022-07-29T02:29:59.078Z,73.62
2022-07-29T02:30:59.284Z,73.52
2022-07-29T02:31:59.254Z,73.52
2022-07-29T02:32:59.327Z,73.42
2022-07-29T02:33:59.440Z,73.42
2022-07-29T02:34:59.517Z,73.42
2022-07-29T02:35:59.706Z,73.32
2022-07-29T02:36:59.701Z,73.52
2022-07-29T02:37:59.805Z,73.62
2022-07-29T02:38:59.882Z,73.75
2022-07-29T02:39:59.988Z,73.85
2022-07-29T02:41:00.092Z,73.75
2022-07-29T02:42:00.138Z,73.75
2022-07-29T02:43:00.214Z,73.65
2022-07-29T02:44:00.316Z,73.75
2022-07-29T02:45:00.397Z,73.65
2022-07-29T02:46:00.599Z,73.55
2022-07-29T02:47:00.619Z,73.45
2022-07-29T02:48:00.652Z,73.45
2022-07-29T02:49:00.806Z,73.35
2022-07-29T02:50:00.889Z,73.15
2022-07-29T02:51:00.909Z,73.25
2022-07-29T02:52:00.979Z,73.25
2022-07-29T02:53:01.055Z,73.25
2022-07-29T02:54:01.162Z,73.18
2022-07-29T02:55:01.237Z,73.49
2022-07-29T02:56:03.259Z,73.69
2022-07-29T02:57:01.414Z,73.99
2022-07-29T02:58:01.516Z,74.09
2022-07-29T02:59:01.586Z,74.40
2022-07-29T03:00:01.689Z,74.40
2022-07-29T03:01:01.763Z,74.63
2022-07-29T03:02:01.993Z,74.63
2022-07-29T03:03:01.940Z,74.63
2022-07-29T03:04:02.043Z,74.84
2022-07-29T03:05:02.136Z,74.84
2022-07-29T03:06:02.217Z,74.93
2022-07-29T03:07:02.316Z,74.93
2022-07-29T03:08:02.383Z,75.04
2022-07-29T03:09:02.459Z,75.13
2022-07-29T03:10:02.567Z,75.24
2022-07-29T03:11:02.642Z,75.24
2022-07-29T03:12:02.765Z,75.24
2022-07-29T03:13:02.816Z,75.44
2022-07-29T03:14:02.923Z,75.84
2022-07-29T03:15:03.012Z,75.74
2022-07-29T03:16:03.147Z,75.84
2022-07-29T03:17:03.272Z,75.74
2022-07-29T03:18:03.265Z,75.54
2022-07-29T03:19:03.343Z,75.34
2022-07-29T03:20:03.443Z,75.44
2022-07-29T03:21:03.517Z,75.64
2022-07-29T03:22:03.608Z,75.74
2022-07-29T03:23:03.650Z,75.74
2022-07-29T03:24:08.263Z,75.74
2022-07-29T03:25:03.843Z,75.64
2022-07-29T03:26:03.911Z,75.54
2022-07-29T03:27:03.980Z,75.74
2022-07-29T03:28:04.056Z,75.64
2022-07-29T03:29:04.148Z,75.74
2022-07-29T03:30:04.223Z,75.64
2022-07-29T03:31:04.328Z,75.74
2022-07-29T03:32:07.435Z,75.74
2022-07-29T03:33:04.449Z,75.71
2022-07-29T03:34:04.533Z,75.40
2022-07-29T03:35:04.607Z,75.20
2022-07-29T03:36:04.724Z,75.31
2022-07-29T03:37:04.804Z,75.24
2022-07-29T03:38:04.870Z,75.13
2022-07-29T03:39:04.942Z,75.34
2022-07-29T03:40:05.050Z,75.34
2022-07-29T03:41:05.125Z,75.54
2022-07-29T03:42:05.249Z,75.34
2022-07-29T03:43:05.284Z,75.64
2022-07-29T03:44:05.396Z,75.54
2022-07-29T03:45:05.470Z,75.44
2022-07-29T03:46:05.576Z,75.44
2022-07-29T03:47:05.659Z,75.64
2022-07-29T03:48:05.701Z,75.74
2022-07-29T03:49:05.820Z,75.64
2022-07-29T03:50:05.876Z,75.51
2022-07-29T03:51:05.943Z,75.40
2022-07-29T03:52:06.157Z,75.40
2022-07-29T03:53:06.098Z,75.31
2022-07-29T03:54:09.954Z,75.24
2022-07-29T03:55:06.261Z,75.54
2022-07-29T03:56:06.358Z,75.74
2022-07-29T03:57:06.451Z,75.84
2022-07-29T03:58:06.522Z,76.08
2022-07-29T03:59:06.603Z,75.98
2022-07-29T04:00:06.670Z,76.28
2022-07-29T04:01:06.745Z,76.39
2022-07-29T04:02:06.930Z,76.28
2022-07-29T04:03:10.645Z,76.39
2022-07-29T04:04:07.014Z,76.18
2022-07-29T04:05:07.099Z,76.39
2022-07-29T04:06:07.187Z,76.48
2022-07-29T04:07:07.281Z,76.25
2022-07-29T04:08:07.358Z,76.15
2022-07-29T04:09:07.437Z,76.04
2022-07-29T04:10:07.524Z,76.04
2022-07-29T04:11:07.600Z,76.15
2022-07-29T04:12:07.722Z,76.15
2022-07-29T04:13:07.781Z,76.25
2022-07-29T04:14:07.887Z,76.25
2022-07-29T04:15:07.973Z,76.15
2022-07-29T04:16:08.153Z,76.25
2022-07-29T04:17:08.175Z,76.15
2022-07-29T04:18:08.246Z,76.15
2022-07-29T04:19:08.295Z,75.95
2022-07-29T04:20:08.402Z,75.84
2022-07-29T04:21:08.477Z,75.74
2022-07-29T04:22:08.597Z,75.84
2022-07-29T04:23:08.675Z,75.54
2022-07-29T04:24:08.761Z,75.74
2022-07-29T04:25:08.833Z,75.54
2022-07-29T04:26:08.930Z,75.44
2022-07-29T04:27:09.138Z,75.34
2022-07-29T04:28:09.081Z,75.34
2022-07-29T04:29:09.152Z,75.20
2022-07-29T04:30:09.262Z,75.20
2022-07-29T04:31:09.367Z,75.31
2022-07-29T04:32:09.434Z,75.10
2022-07-29T04:33:09.508Z,75.10
2022-07-29T04:34:09.612Z,74.90
2022-07-29T04:35:09.684Z,75.10
2022-07-29T04:36:28.729Z,74.90
2022-07-29T04:37:09.886Z,75.10
2022-07-29T04:38:15.681Z,75.20
2022-07-29T04:39:10.021Z,75.20
2022-07-29T04:40:10.089Z,75.40
2022-07-29T04:41:10.164Z,75.20
2022-07-29T04:42:10.278Z,75.20
2022-07-29T04:43:10.347Z,75.10
2022-07-29T04:44:10.414Z,74.90
2022-07-29T04:45:10.479Z,74.80
2022-07-29T04:46:10.621Z,74.49
2022-07-29T04:47:10.637Z,74.49
2022-07-29T04:48:10.701Z,74.49
2022-07-29T04:49:10.848Z,74.80
2022-07-29T04:50:10.868Z,74.69
2022-07-29T04:51:10.938Z,74.66
2022-07-29T04:52:11.062Z,74.56
2022-07-29T04:53:11.101Z,74.46
2022-07-29T04:54:11.205Z,74.46
2022-07-29T04:55:11.263Z,74.36
2022-07-29T04:56:11.367Z,74.26
2022-07-29T04:57:11.471Z,74.16
2022-07-29T04:58:11.537Z,74.05
2022-07-29T04:59:11.618Z,74.12
2022-07-29T05:00:11.713Z,74.12
2022-07-29T05:01:11.903Z,73.92
2022-07-29T05:02:11.981Z,73.52
2022-07-29T05:03:11.983Z,73.32
2022-07-29T05:04:12.032Z,73.22
2022-07-29T05:05:12.080Z,73.11
2022-07-29T05:06:12.174Z,73.18
2022-07-29T05:07:12.274Z,73.18
2022-07-29T05:08:12.354Z,73.08
2022-07-29T05:09:12.453Z,73.18
2022-07-29T05:10:12.521Z,73.18
2022-07-29T05:11:14.936Z,73.18
2022-07-29T05:12:12.712Z,72.98
2022-07-29T05:13:12.756Z,72.74
2022-07-29T05:14:13.103Z,72.85
2022-07-29T05:15:12.905Z,72.94
2022-07-29T05:16:13.059Z,72.85
2022-07-29T05:17:13.087Z,72.85
2022-07-29T05:18:13.138Z,72.94
2022-07-29T05:19:14.649Z,73.14
2022-07-29T05:20:13.317Z,73.14
2022-07-29T05:21:13.387Z,73.25
2022-07-29T05:22:13.484Z,73.45
2022-07-29T05:23:13.535Z,73.45
2022-07-29T05:24:14.004Z,73.65
2022-07-29T05:25:13.695Z,73.75
2022-07-29T05:26:13.782Z,73.55
2022-07-29T05:27:13.973Z,73.45
2022-07-29T05:28:13.953Z,73.25
2022-07-29T05:29:44.008Z,73.01
2022-07-29T05:30:14.097Z,72.61
2022-07-29T05:31:14.229Z,72.41
2022-07-29T05:32:14.300Z,72.11
2022-07-29T05:33:35.044Z,72.00
2022-07-29T05:34:14.694Z,71.70
2022-07-29T05:35:14.498Z,71.50
2022-07-29T05:36:14.574Z,71.40
2022-07-29T05:37:14.671Z,71.40
2022-07-29T05:38:14.744Z,71.40
2022-07-29T05:39:14.831Z,71.40
2022-07-29T05:40:14.910Z,71.30
2022-07-29T05:41:14.998Z,71.40
2022-07-29T05:42:15.112Z,71.20
2022-07-29T05:43:15.160Z,71.00
2022-07-29T05:44:15.487Z,70.70
2022-07-29T05:45:15.300Z,70.36
2022-07-29T05:46:15.435Z,70.06
2022-07-29T05:47:15.464Z,69.96
2022-07-29T05:48:15.537Z,69.96
2022-07-29T05:49:26.765Z,69.82
2022-07-29T05:50:15.736Z,69.42
2022-07-29T05:51:15.819Z,69.02
2022-07-29T05:52:15.942Z,68.59
2022-07-29T05:53:19.162Z,68.28
2022-07-29T05:54:16.384Z,67.98
2022-07-29T05:55:16.126Z,67.38
2022-07-29T05:56:16.235Z,67.47
2022-07-29T05:57:16.329Z,66.97
2022-07-29T05:58:16.426Z,66.84
2022-07-29T05:59:18.325Z,66.64
2022-07-29T06:00:16.611Z,66.54
2022-07-29T06:01:16.722Z,66.34
2022-07-29T06:02:16.799Z,66.31
2022-07-29T06:03:16.840Z,65.94
2022-07-29T06:04:17.476Z,65.73
2022-07-29T06:05:17.323Z,65.80
2022-07-29T06:06:17.063Z,65.41
2022-07-29T06:07:17.207Z,65.60
2022-07-29T06:08:17.216Z,65.41
2022-07-29T06:09:17.288Z,65.33
2022-07-29T06:10:17.359Z,65.64
2022-07-29T06:11:17.471Z,65.41
2022-07-29T06:12:17.580Z,65.00
2022-07-29T06:13:17.642Z,63.93
2022-07-29T06:14:18.092Z,63.31
2022-07-29T06:15:17.836Z,62.77
2022-07-29T06:16:30.223Z,62.37
2022-07-29T06:17:18.069Z,62.77
2022-07-29T06:18:18.077Z,62.97
2022-07-29T06:19:18.151Z,63.45
2022-07-29T06:20:18.234Z,64.15
2022-07-29T06:21:18.313Z,64.15
2022-07-29T06:22:18.377Z,64.58
2022-07-29T06:23:18.468Z,65.01
2022-07-29T06:24:19.023Z,66.01
2022-07-29T06:25:18.608Z,66.64
2022-07-29T06:26:18.663Z,67.05
2022-07-29T06:27:18.781Z,68.05
2022-07-29T06:28:18.824Z,68.79
2022-07-29T06:29:18.908Z,68.49
2022-07-29T06:30:18.975Z,68.41
2022-07-29T06:31:19.136Z,68.95
2022-07-29T06:32:19.178Z,70.16
2022-07-29T06:33:19.187Z,70.26
2022-07-29T06:34:19.649Z,70.36
2022-07-29T06:35:39.278Z,70.56
2022-07-29T06:36:19.428Z,70.73
2022-07-29T06:37:19.531Z,70.23
2022-07-29T06:38:31.307Z,70.43
2022-07-29T06:39:19.681Z,69.92
2022-07-29T06:40:19.726Z,69.42
2022-07-29T06:41:19.805Z,70.23
2022-07-29T06:42:19.906Z,70.32
2022-07-29T06:43:19.985Z,69.39
2022-07-29T06:44:20.396Z,69.32
2022-07-29T06:45:20.158Z,68.99
2022-07-29T06:46:20.371Z,67.65
2022-07-29T06:47:20.345Z,67.61
2022-07-29T06:48:20.390Z,68.02
2022-07-29T06:49:20.513Z,69.06
2022-07-29T06:50:20.520Z,69.15
2022-07-29T06:51:22.565Z,69.85
2022-07-29T06:52:20.716Z,69.85
2022-07-29T06:53:20.779Z,70.16
2022-07-29T06:54:20.868Z,70.12
2022-07-29T06:55:25.133Z,70.96
2022-07-29T06:56:21.004Z,70.56
2022-07-29T06:57:21.119Z,71.06
2022-07-29T06:58:21.167Z,71.33
2022-07-29T06:59:28.337Z,70.43
2022-07-29T07:00:21.367Z,70.43
2022-07-29T07:01:21.459Z,71.03
2022-07-29T07:02:21.620Z,70.93
2022-07-29T07:03:21.593Z,70.53
2022-07-29T07:04:21.797Z,70.12
2022-07-29T07:05:21.734Z,70.32
2022-07-29T07:06:21.815Z,69.02
2022-07-29T07:07:21.914Z,69.53
2022-07-29T07:08:21.960Z,71.03
2022-07-29T07:09:22.037Z,70.93
2022-07-29T07:10:22.119Z,70.83
2022-07-29T07:11:22.194Z,70.63
2022-07-29T07:12:22.279Z,70.63
2022-07-29T07:13:22.353Z,70.50
2022-07-29T07:14:22.515Z,71.09
2022-07-29T07:15:22.525Z,69.89
2022-07-29T07:16:22.615Z,70.29
2022-07-29T07:17:22.867Z,69.35
2022-07-29T07:18:22.745Z,69.16
2022-07-29T07:19:22.819Z,68.35
2022-07-29T07:20:22.900Z,68.35
2022-07-29T07:21:22.996Z,68.26
2022-07-29T07:22:23.093Z,68.65
2022-07-29T07:23:23.171Z,68.05
2022-07-29T07:24:23.248Z,68.26
2022-07-29T07:25:23.362Z,68.12
2022-07-29T07:26:23.439Z,66.46
2022-07-29T07:27:23.626Z,66.55
2022-07-29T07:28:24.656Z,66.36
2022-07-29T07:29:23.696Z,66.89
2022-07-29T07:30:23.899Z,67.09
2022-07-29T07:31:23.920Z,66.99
2022-07-29T07:32:24.048Z,67.16
2022-07-29T07:33:24.071Z,66.75
2022-07-29T07:34:29.495Z,66.25
2022-07-29T07:35:24.267Z,66.46
2022-07-29T07:36:24.327Z,66.16
2022-07-29T07:37:24.455Z,65.86
2022-07-29T07:38:24.494Z,65.86
2022-07-29T07:39:24.609Z,65.25
2022-07-29T07:40:24.677Z,65.45
2022-07-29T07:41:24.750Z,65.22
2022-07-29T07:42:24.866Z,65.52
2022-07-29T07:43:24.912Z,65.75
2022-07-29T07:44:24.991Z,65.55
2022-07-29T07:45:25.208Z,65.95
2022-07-29T07:46:25.198Z,66.16
2022-07-29T07:47:25.254Z,66.46
2022-07-29T07:48:25.306Z,66.25
2022-07-29T07:49:25.472Z,65.95
2022-07-29T07:50:25.473Z,66.16
2022-07-29T07:51:25.567Z,65.89
2022-07-29T07:52:25.665Z,66.69
2022-07-29T07:53:25.729Z,66.28
2022-07-29T07:54:25.796Z,66.59
2022-07-29T07:55:25.903Z,66.28
2022-07-29T07:56:25.992Z,66.19
2022-07-29T07:57:26.116Z,65.86
2022-07-29T07:58:26.180Z,66.05
2022-07-29T07:59:26.272Z,66.16
2022-07-29T08:00:26.368Z,65.95
2022-07-29T08:01:26.464Z,65.86
2022-07-29T08:02:26.533Z,65.86
2022-07-29T08:03:26.588Z,65.86
2022-07-29T08:04:28.612Z,65.25
2022-07-29T08:05:26.778Z,65.28
2022-07-29T08:06:26.827Z,65.45
2022-07-29T08:07:26.952Z,65.05
2022-07-29T08:08:26.993Z,64.95
2022-07-29T08:09:29.752Z,64.95
2022-07-29T08:10:27.154Z,64.65
2022-07-29T08:11:27.225Z,64.45
2022-07-29T08:12:27.317Z,64.15
2022-07-29T08:13:27.367Z,63.95
2022-07-29T08:14:27.449Z,63.92
2022-07-29T08:15:27.552Z,63.72
2022-07-29T08:16:27.717Z,63.53
2022-07-29T08:17:27.780Z,63.62
2022-07-29T08:18:27.809Z,63.62
2022-07-29T08:19:27.888Z,63.53
2022-07-29T08:20:27.966Z,63.53
2022-07-29T08:21:28.076Z,63.79
2022-07-29T08:22:28.175Z,63.39
2022-07-29T08:23:32.897Z,63.29
2022-07-29T08:24:28.309Z,62.43
2022-07-29T08:25:28.384Z,59.47
2022-07-29T08:26:28.457Z,56.87
2022-07-29T08:27:44.443Z,55.82
2022-07-29T08:28:28.614Z,53.73
2022-07-29T08:29:28.687Z,51.37
2022-07-29T08:30:28.773Z,50.01
2022-07-29T08:31:28.948Z,48.96
2022-07-29T08:32:52.006Z,46.99
2022-07-29T08:33:29.040Z,45.37
2022-07-29T08:34:29.084Z,44.24
2022-07-29T08:35:33.327Z,44.48
2022-07-29T08:36:29.220Z,44.15
2022-07-29T08:37:29.318Z,43.63
2022-07-29T08:38:29.368Z,43.95
2022-07-29T08:39:29.440Z,44.66
2022-07-29T08:40:32.528Z,43.61
2022-07-29T08:41:29.595Z,42.08
2022-07-29T08:42:29.683Z,41.03
2022-07-29T08:43:29.762Z,39.92
2022-07-29T08:44:31.187Z,38.90
2022-07-29T08:45:29.997Z,38.28
2022-07-29T08:46:30.005Z,37.48
2022-07-29T08:47:30.116Z,37.05
2022-07-29T08:48:30.158Z,36.37
2022-07-29T08:49:30.231Z,36.57
2022-07-29T08:50:30.285Z,36.25
2022-07-29T08:51:30.358Z,35.67
2022-07-29T08:52:30.464Z,35.86
2022-07-29T08:53:30.538Z,36.19
2022-07-29T08:54:30.626Z,37.21
2022-07-29T08:55:30.699Z,37.41
2022-07-29T08:56:30.784Z,37.32
2022-07-29T08:57:30.898Z,37.77
2022-07-29T08:58:30.964Z,38.47
2022-07-29T08:59:31.392Z,39.72
2022-07-29T09:00:31.151Z,40.33
2022-07-29T09:01:36.245Z,40.94
2022-07-29T09:02:31.303Z,41.47
2022-07-29T09:03:31.430Z,42.67
2022-07-29T09:04:31.430Z,43.38
2022-07-29T09:05:31.503Z,43.38
2022-07-29T09:06:31.587Z,44.40
2022-07-29T09:07:34.531Z,44.72
2022-07-29T09:08:31.720Z,44.09
2022-07-29T09:09:31.815Z,44.40
2022-07-29T09:10:31.898Z,43.48
2022-07-29T09:11:31.972Z,42.75
2022-07-29T09:12:37.613Z,42.55
2022-07-29T09:13:32.158Z,43.48
2022-07-29T09:14:32.207Z,43.60
2022-07-29T09:15:32.281Z,43.79
2022-07-29T09:16:52.356Z,44.21
2022-07-29T09:17:32.530Z,44.72
2022-07-29T09:18:32.515Z,45.65
2022-07-29T09:19:32.597Z,46.51
2022-07-29T09:20:32.666Z,45.78
2022-07-29T09:21:32.757Z,44.94
2022-07-29T09:22:32.858Z,44.82
2022-07-29T09:23:32.936Z,43.38
2022-07-29T09:24:33.024Z,42.33
2022-07-29T09:25:33.121Z,41.84
2022-07-29T09:26:33.214Z,41.77
2022-07-29T09:27:33.300Z,42.49
2022-07-29T09:28:33.397Z,43.34
2022-07-29T09:29:36.284Z,43.66
2022-07-29T09:30:33.536Z,44.06
2022-07-29T09:31:33.656Z,44.15
2022-07-29T09:32:33.717Z,43.32
2022-07-29T09:33:33.791Z,42.71
2022-07-29T09:34:33.874Z,43.64
2022-07-29T09:35:33.984Z,44.87
2022-07-29T09:36:34.066Z,45.30
2022-07-29T09:37:34.154Z,45.79
2022-07-29T09:38:34.218Z,45.08
2022-07-29T09:39:34.321Z,45.28
2022-07-29T09:40:34.384Z,44.45
2022-07-29T09:41:34.464Z,43.20
2022-07-29T09:42:34.565Z,41.86
2022-07-29T09:43:34.652Z,41.25
2022-07-29T09:44:34.725Z,41.16
2022-07-29T09:45:34.801Z,41.14
2022-07-29T09:46:34.921Z,40.74
2022-07-29T09:47:34.981Z,40.35
2022-07-29T09:48:35.023Z,40.13
2022-07-29T09:49:35.097Z,40.06
2022-07-29T09:50:35.179Z,40.66
2022-07-29T09:51:38.295Z,40.37
2022-07-29T09:52:35.356Z,40.66
2022-07-29T09:53:35.435Z,39.84
2022-07-29T09:54:35.517Z,39.01
2022-07-29T09:55:35.592Z,38.31
2022-07-29T09:56:35.668Z,38.21
2022-07-29T09:57:35.753Z,38.33
2022-07-29T09:58:35.817Z,38.31
2022-07-29T09:59:35.896Z,39.09
2022-07-29T10:00:35.999Z,38.31
2022-07-29T10:01:36.059Z,38.93
2022-07-29T10:02:36.163Z,38.96
2022-07-29T10:03:36.352Z,39.35
2022-07-29T10:04:36.304Z,39.76
2022-07-29T10:05:37.123Z,39.56
2022-07-29T10:06:36.439Z,39.64
2022-07-29T10:07:36.525Z,39.74
2022-07-29T10:08:36.568Z,39.27
2022-07-29T10:09:36.643Z,39.88
2022-07-29T10:10:36.714Z,39.90
2022-07-29T10:11:49.728Z,40.72
2022-07-29T10:12:36.875Z,41.65
2022-07-29T10:13:36.949Z,42.77
2022-07-29T10:14:37.032Z,42.87
2022-07-29T10:15:37.102Z,43.29
2022-07-29T10:16:37.327Z,43.09
2022-07-29T10:17:37.294Z,43.09
2022-07-29T10:18:37.359Z,43.21
2022-07-29T10:19:37.434Z,43.92
2022-07-29T10:20:37.505Z,43.60
2022-07-29T10:21:37.554Z,42.89
2022-07-29T10:22:52.525Z,42.68
2022-07-29T10:23:46.143Z,42.47
2022-07-29T10:24:37.797Z,42.99
2022-07-29T10:25:37.855Z,43.09
2022-07-29T10:26:37.937Z,42.68
2022-07-29T10:27:38.030Z,42.55
2022-07-29T10:28:38.110Z,42.14
2022-07-29T10:29:38.192Z,41.94
2022-07-29T10:30:38.264Z,42.07
2022-07-29T10:31:38.446Z,42.76
2022-07-29T10:32:38.459Z,42.85
2022-07-29T10:33:38.592Z,42.76
2022-07-29T10:34:38.590Z,42.68
2022-07-29T10:35:38.653Z,42.44
2022-07-29T10:36:38.731Z,42.34
2022-07-29T10:37:38.799Z,42.44
2022-07-29T10:38:38.870Z,42.65
2022-07-29T10:39:44.548Z,42.76
2022-07-29T10:40:41.209Z,43.15
2022-07-29T12:07:11.056Z,43.44
2022-07-29T12:07:19.946Z,40.41
2022-07-29T12:08:19.684Z,40.31
2022-07-29T12:09:19.779Z,40.61
2022-07-29T12:10:30.662Z,40.51
2022-07-29T12:11:21.415Z,41.02
2022-07-29T12:12:20.019Z,41.12
2022-07-29T12:13:20.086Z,40.92
2022-07-29T12:14:20.160Z,40.82
2022-07-29T12:15:20.432Z,41.51
2022-07-29T12:16:28.151Z,41.59
2022-07-29T12:17:20.491Z,41.49
2022-07-29T12:18:20.516Z,41.59
2022-07-29T12:19:20.588Z,42.10
2022-07-29T12:20:20.649Z,41.91
2022-07-29T12:21:20.719Z,41.71
2022-07-29T12:22:20.797Z,41.81
2022-07-29T12:23:20.869Z,42.00
2022-07-29T12:24:20.947Z,41.81
2022-07-29T12:25:36.471Z,41.81
2022-07-29T12:26:25.590Z,42.13
2022-07-29T12:27:29.488Z,42.13
2022-07-29T12:28:27.412Z,42.61
2022-07-29T12:29:35.012Z,42.32
2022-07-29T12:30:21.418Z,41.71
2022-07-29T12:31:42.251Z,42.20
2022-07-29T12:32:21.635Z,41.81
2022-07-29T12:33:21.649Z,42.13
2022-07-29T12:34:21.709Z,42.32
2022-07-29T12:35:21.782Z,42.42
2022-07-29T12:36:21.867Z,42.40
2022-07-29T12:37:31.857Z,42.40
2022-07-29T12:38:22.187Z,42.40
2022-07-29T12:39:22.107Z,42.47
2022-07-29T12:40:22.162Z,42.50
2022-07-29T12:41:22.238Z,42.89
2022-07-29T12:42:22.321Z,42.60
2022-07-29T12:43:22.425Z,42.89
2022-07-29T12:44:22.471Z,43.31
2022-07-29T12:45:22.565Z,43.01
2022-07-29T12:46:22.703Z,42.79
2022-07-29T12:47:22.755Z,42.40
2022-07-29T12:48:22.854Z,42.30
2022-07-29T12:49:22.949Z,42.61
2022-07-29T12:50:26.251Z,42.91
2022-07-29T12:51:23.096Z,42.72
2022-07-29T12:52:23.175Z,42.52
2022-07-29T12:53:23.309Z,42.91
2022-07-29T12:54:23.369Z,42.72
2022-07-29T12:55:23.463Z,42.72
2022-07-29T12:57:23.646Z,42.82
2022-07-29T12:58:23.706Z,42.82
2022-07-29T12:59:23.767Z,42.74
2022-07-29T13:00:23.924Z,43.33
2022-07-29T13:01:23.997Z,43.15
2022-07-29T13:02:24.058Z,43.33
2022-07-29T13:03:24.093Z,43.13
2022-07-29T13:04:24.117Z,42.82
2022-07-29T13:05:24.192Z,42.52
2022-07-29T13:06:24.273Z,42.20
2022-07-29T13:07:54.608Z,42.30
2022-07-29T13:08:24.426Z,42.08
2022-07-29T13:09:24.499Z,41.99
2022-07-29T13:10:25.015Z,42.08
2022-07-29T13:11:24.685Z,42.28
2022-07-29T13:12:24.751Z,42.28
2022-07-29T13:13:24.875Z,41.99
2022-07-29T13:14:24.918Z,41.78
2022-07-29T13:15:24.992Z,41.69
2022-07-29T13:16:25.119Z,41.39
2022-07-29T13:17:25.147Z,41.59
2022-07-29T13:18:25.245Z,41.91
2022-07-29T13:19:25.320Z,42.10
2022-07-29T13:20:25.389Z,41.91
2022-07-29T13:21:25.499Z,42.30
2022-07-29T13:22:25.581Z,42.30
2022-07-29T13:23:25.667Z,41.41
2022-07-29T13:24:25.707Z,41.81
2022-07-29T13:25:25.783Z,41.31
2022-07-29T13:26:25.863Z,41.09
2022-07-29T13:27:25.932Z,41.41
2022-07-29T13:28:26.028Z,41.41
2022-07-29T13:29:31.119Z,41.30
2022-07-29T13:30:26.209Z,41.09
2022-07-29T13:31:26.269Z,40.70
2022-07-29T13:32:28.663Z,40.70
2022-07-29T13:33:26.436Z,40.70
2022-07-29T13:34:26.471Z,40.70
2022-07-29T13:35:26.570Z,40.69
2022-07-29T13:36:26.652Z,40.58
2022-07-29T13:37:26.725Z,40.58
2022-07-29T13:38:31.299Z,40.48
2022-07-29T13:39:26.896Z,40.58
2022-07-29T13:40:26.975Z,40.69
2022-07-29T13:41:27.086Z,40.72
2022-07-29T13:42:27.173Z,41.22
2022-07-29T13:43:27.252Z,41.31
2022-07-29T13:44:27.292Z,41.31
2022-07-29T13:45:29.001Z,41.41
2022-07-29T13:46:27.543Z,41.22
2022-07-29T13:47:32.562Z,41.31
2022-07-29T13:48:27.647Z,41.41
2022-07-29T13:49:27.721Z,41.81
2022-07-29T13:50:27.786Z,41.81
2022-07-29T13:51:27.879Z,41.41
2022-07-29T13:52:27.961Z,41.83
2022-07-29T13:53:28.083Z,41.53
2022-07-29T13:54:28.097Z,41.75
2022-07-29T13:55:28.183Z,41.87
2022-07-29T13:56:28.244Z,42.58
2022-07-29T13:57:28.324Z,42.58
2022-07-29T13:58:28.426Z,42.68
2022-07-29T13:59:28.502Z,42.88
2022-07-29T14:00:28.574Z,42.58
2022-07-29T14:01:28.797Z,42.78
2022-07-29T14:02:28.733Z,42.78
2022-07-29T14:03:28.835Z,42.90
2022-07-29T14:04:28.927Z,43.10
2022-07-29T14:05:28.992Z,43.10
2022-07-29T14:06:29.071Z,43.19
2022-07-29T14:07:29.148Z,43.29
2022-07-29T14:08:29.248Z,42.99
2022-07-29T14:09:29.321Z,43.29
2022-07-29T14:10:29.404Z,42.99
2022-07-29T14:11:29.492Z,42.99
2022-07-29T14:12:29.588Z,42.68
2022-07-29T14:13:29.676Z,42.68
2022-07-29T14:14:29.732Z,42.68
2022-07-29T14:15:29.823Z,42.58
2022-07-29T14:16:29.915Z,42.56
2022-07-29T14:17:30.090Z,42.46
2022-07-29T14:18:30.116Z,42.36
2022-07-29T14:19:30.181Z,41.97